Tropical Cyclones
[Index]
Main Index Home Page Stock Weather Photos Extreme Storms Discussion Storm News and Storm Chasing Reports Tropical Cyclones / Hurricanes / Typhoons Weather Data and Links Wild Fires / Bushfires Weather Observation Techniques Weather Picture Catalogue Tornado Pictures and Reports Stock Video Footage and DVDs for sale
Season 2010-2011 Tropical Cyclone VINCE Track Map
Season 2010-2011 Summaries (Operational Data): [AU] [SIO] [SPAC] [SH]
<<- Previous TC | 2010-2011 Season | Next TC ->>

click for intensity scale information  Lat/long Grid: Show Hide

 Date Labels: Show Hide

Operational Tropical Cyclone Data : JTWC Advisories | BoM Warnings

Name: VINCE
Number: 1106

11 Jan 2011 00:00 UTC to 23 Jan 2011 06:00 UTC

    date/time    lat    long     hPa   cat  kts
2011-01-11 00   14.9   108.3     996         25          
2011-01-11 06   14.9   107.7     994         30          
2011-01-11 12   14.9   107.5     994         30          
2011-01-11 18   14.9   107.5     990         30          
2011-01-12 00   14.9   107.1     987    1    40          
2011-01-12 06   14.9   107.5     987    1    40          
2011-01-12 12   15.2   108.4     986    1    40          
2011-01-12 18   15.3   109.1     986    1    40          
2011-01-13 00   15.2   109.4     986    1    40          
2011-01-13 06   15.7   109.5     986    1    40          
2011-01-13 12   15.9   110.3     986    1    40          
2011-01-13 18   16.1   111.1     986    1    40          
2011-01-14 00   16.3   112.5     990    1    40          
2011-01-14 06   16.1   113.6     996         30          
2011-01-14 12   16.3   114.5                             
2011-01-15 00   15.9   114.5                 31          
2011-01-15 12   15.8   114.1                 31          
2011-01-16 00   16.0   113.2                 26          
2011-01-16 06   16.3   112.7    1000                     
2011-01-16 12   16.4   112.2    1000         26          
2011-01-16 18   17.0   111.8    1000         26          
2011-01-17 00   17.5   111.3    1000         26          
2011-01-17 06   18.0   110.6    1000         26          
2011-01-17 12   19.7   107.6    1000                     
2011-01-17 18   19.4   105.5    1001                     
2011-01-18 00   20.0   104.9    1001                     
2011-01-18 06   20.0   102.8    1001                     
2011-01-18 12   20.1   102.3    1001                     
2011-01-18 18   19.4   100.5    1002                     
2011-01-19 00   19.7    99.6    1002                     
2011-01-19 06   19.7    99.3    1003                     
2011-01-19 12   17.9    99.5    1002                     
2011-01-19 18   18.3    97.1    1004                     
2011-01-20 00   17.6    95.8    1002                     
2011-01-20 06   17.5    95.1    1003                     
2011-01-20 12   17.5    95.1    1002                     
2011-01-20 18   17.6    95.0    1004                     
2011-01-21 00   17.4    93.5    1002                     
2011-01-21 06   17.7    93.0    1003                     
2011-01-21 12   17.2    93.5    1002                     
2011-01-21 18   17.1    92.8    1004                     
2011-01-22 00   17.2    92.8    1003                     
2011-01-22 06   17.4    92.5    1004                     
2011-01-22 12   17.5    92.4    1004                     
2011-01-22 18   17.4    92.4    1007                     
2011-01-23 00   16.7    92.4    1006                     
2011-01-23 06   16.8    92.7    1007                     
Winds are 10-min average.

Tropical cyclone tracks developed by Michael Bath using operational warnings and advisories and Google Maps.


[Australian Severe Weather index] [Copyright Notice] [Email Contacts] [Search This Site] [Privacy Policy]
Document: tropical_cyclone_vince.htm Updated: 2 May 2017